首页
METAR-TAF:

METAR-TAF

机场 :

Eppley Airfield

奥马哈, 內布拉斯加州, 美国

纬度: 41-18-37N, 经度: 095-53-57W, 海拔: 299米

当前天气观测

该预报发布于22分钟前的02:52 UTC
风速11节,风向北转西北
温度 3°C
湿度 81%
气压 1019 hPa
能見度: 16.1公里
阴天层高于6500英尺

METAR: KOMA 140252Z 34011KT 10SM OVC065 03/00 A3010 RMK AO2 SLP200 T00330000 51020

时间: 21:14 (03:14 UTC)

预报

该预报发布于3小时和54分钟前的23:20 UTC
预报有效从14日的 00点(UTC)到 14日的 24点(UTC)
风速6节,风向北转西北
能見度: 10公里
散云层高于2500英尺
多云层高于3500英尺
从 14日的 0600点(UTC)
风速7节,风向北转西北
能見度: 10公里
散云层高于9000英尺
从 14日的 1900点(UTC)
风速6节,风向西北
能見度: 10公里
少量云层高于25000英尺

TAF: KOMA 132320Z 1400/1424 33006KT P6SM SCT025 BKN035 FM140600 33007KT P6SM SCT090 FM141900 31006KT P6SM FEW250

超过4000个机场的气象观测和天气预报(METAR&TAF报告)。

可查询的气象台以黄色和红色小点在地图上表示。

将鼠标移到小点上方,可查看气象台名称。

然后点击查看天气观测和预报。

如需切换地图:点击带黑十字的绿色按钮放大地图;点击带横线的绿色按钮缩小地图;或者点击绿色箭头查看邻近地区的地图。


METAR-TAF: